Bradley Beach, New Jersey
Current Conditions -  °F | °C
As of 3:15 AM on Thursday 27 Nov 2014 (Local Time) from KBLM Reporting Station
Broken Clouds Broken Clouds  
Wind Chill: 27°   Ceiling: 6500
Heat Index: 34°   Visibility: 10mi
Dew Point: 28°   Wind: 8mph
Humidity: 81%   Direction: 270°W
Pressure: 29.92"   Gusts: NA
Location:  40.2°N, 74.01°W
Report Text: KBLM 270815Z AUTO 27007KT 10SM FEW021 BKN065 01/M02 A2992 RMK AO1
Loading
Personal Weather Stations






























Interactive Weather Map New forecast layout! Learn more

10-Day Weather Forecast

Advertisements
Track Severe Weather on mobile